createdAt,value
2022-08-03T00:00:26.691Z,28.19
2022-08-03T00:02:53.559Z,28.14
2022-08-03T00:05:20.317Z,28.21
2022-08-03T00:07:46.912Z,28.11
2022-08-03T00:10:16.326Z,28.26
2022-08-03T00:12:43.018Z,28.06
2022-08-03T00:15:11.370Z,27.99
2022-08-03T00:17:52.461Z,28.10
2022-08-03T00:20:23.558Z,28.02
2022-08-03T00:22:50.500Z,27.95
2022-08-03T00:25:17.631Z,27.99
2022-08-03T00:27:44.380Z,28.08
2022-08-03T00:30:11.810Z,27.97
2022-08-03T00:32:38.828Z,27.77
2022-08-03T00:35:27.361Z,27.77
2022-08-03T00:37:59.322Z,27.75
2022-08-03T00:40:26.521Z,27.74
2022-08-03T00:42:59.259Z,27.76
2022-08-03T00:45:32.905Z,27.80
2022-08-03T00:48:00.175Z,27.71
2022-08-03T00:50:30.889Z,27.63
2022-08-03T00:52:59.869Z,27.55
2022-08-03T00:55:26.874Z,27.52
2022-08-03T00:57:54.540Z,27.57
2022-08-03T01:00:24.114Z,27.67
2022-08-03T01:02:51.758Z,27.76
2022-08-03T01:05:19.216Z,27.75
2022-08-03T01:08:16.876Z,27.63
2022-08-03T01:11:10.321Z,27.71
2022-08-03T01:14:28.252Z,27.68
2022-08-03T01:17:04.123Z,27.72
2022-08-03T01:19:52.822Z,27.61
2022-08-03T01:22:40.698Z,27.58
2022-08-03T01:25:17.790Z,27.52
2022-08-03T01:28:19.578Z,27.49
2022-08-03T01:30:47.945Z,27.52
2022-08-03T01:33:24.322Z,27.64
2022-08-03T01:35:59.050Z,27.63
2022-08-03T01:38:32.125Z,27.77
2022-08-03T01:41:08.928Z,27.65
2022-08-03T01:44:26.968Z,27.55
2022-08-03T01:46:26.326Z,27.53
2022-08-03T01:48:54.948Z,27.64
2022-08-03T01:51:23.636Z,27.42
2022-08-03T01:54:11.564Z,27.50
2022-08-03T01:56:41.174Z,27.63
2022-08-03T01:59:10.067Z,27.31
2022-08-03T02:02:15.593Z,27.35
2022-08-03T02:04:26.643Z,27.43
2022-08-03T02:07:02.885Z,27.39
2022-08-03T02:09:32.194Z,27.30
2022-08-03T02:11:59.204Z,27.12
2022-08-03T02:14:28.096Z,27.10
2022-08-03T02:16:56.040Z,27.20
2022-08-03T02:19:25.041Z,27.19
2022-08-03T02:21:57.387Z,27.13
2022-08-03T02:24:28.861Z,27.14
2022-08-03T02:26:56.844Z,27.22
2022-08-03T02:29:39.457Z,27.07
2022-08-03T02:32:12.535Z,26.90
2022-08-03T02:34:42.663Z,26.92
2022-08-03T02:37:11.840Z,27.03
2022-08-03T02:39:41.783Z,26.89
2022-08-03T02:42:12.233Z,26.77
2022-08-03T02:44:41.616Z,26.92
2022-08-03T02:47:11.376Z,27.11
2022-08-03T02:49:51.076Z,26.88
2022-08-03T02:52:21.591Z,26.81
2022-08-03T02:54:51.388Z,26.91
2022-08-03T02:57:20.210Z,26.87
2022-08-03T02:59:47.788Z,26.97
2022-08-03T03:02:16.787Z,26.92
2022-08-03T03:05:51.159Z,27.09
2022-08-03T03:07:46.872Z,27.07
2022-08-03T03:10:21.539Z,27.03
2022-08-03T03:12:50.549Z,27.06
2022-08-03T03:15:17.437Z,26.95
2022-08-03T03:17:44.768Z,26.87
2022-08-03T03:20:12.385Z,26.99
2022-08-03T03:22:41.283Z,26.82
2022-08-03T03:25:12.030Z,26.80
2022-08-03T03:27:39.968Z,26.76
2022-08-03T03:30:07.331Z,26.77
2022-08-03T03:32:34.214Z,26.73
2022-08-03T03:35:01.314Z,26.76
2022-08-03T03:37:28.134Z,26.62
2022-08-03T03:39:55.317Z,26.73
2022-08-03T03:42:22.855Z,26.75
2022-08-03T03:44:49.535Z,26.62
2022-08-03T03:47:16.660Z,26.77
2022-08-03T03:49:44.006Z,26.66
2022-08-03T03:52:11.003Z,26.48
2022-08-03T03:54:45.298Z,26.54
2022-08-03T03:57:13.134Z,26.60
2022-08-03T03:59:41.900Z,26.50
2022-08-03T04:02:09.766Z,26.43
2022-08-03T04:04:56.208Z,26.43
2022-08-03T04:07:44.135Z,26.35
2022-08-03T04:10:37.380Z,26.36
2022-08-03T04:13:10.002Z,26.28
2022-08-03T04:15:39.795Z,26.40
2022-08-03T04:18:08.245Z,26.46
2022-08-03T04:20:37.581Z,26.24
2022-08-03T04:23:15.646Z,26.34
2022-08-03T04:25:43.996Z,26.44
2022-08-03T04:28:29.572Z,26.85
2022-08-03T04:31:01.352Z,27.07
2022-08-03T04:33:32.486Z,27.69
2022-08-03T04:36:03.395Z,28.03
2022-08-03T04:38:32.956Z,27.95
2022-08-03T04:41:01.176Z,27.64
2022-08-03T04:43:28.842Z,27.51
2022-08-03T04:45:56.956Z,28.08
2022-08-03T04:48:24.155Z,28.33
2022-08-03T04:50:51.337Z,28.52
2022-08-03T04:53:18.296Z,28.65
2022-08-03T04:55:46.560Z,28.90
2022-08-03T04:58:13.407Z,28.56
2022-08-03T05:00:40.095Z,28.19
2022-08-03T05:03:20.226Z,27.56
2022-08-03T05:05:52.592Z,27.93
2022-08-03T05:08:20.428Z,28.52
2022-08-03T05:10:54.767Z,28.37
2022-08-03T05:13:21.449Z,27.68
2022-08-03T05:15:49.324Z,28.18
2022-08-03T05:18:16.023Z,28.31
2022-08-03T05:20:42.698Z,28.38
2022-08-03T05:23:09.362Z,28.62
2022-08-03T05:25:36.022Z,28.28
2022-08-03T05:28:03.551Z,28.01
2022-08-03T05:30:33.638Z,27.70
2022-08-03T05:33:01.601Z,27.69
2022-08-03T05:36:01.622Z,27.61
2022-08-03T05:38:24.292Z,27.24
2022-08-03T05:40:57.520Z,27.05
2022-08-03T05:43:43.516Z,26.79
2022-08-03T05:46:13.078Z,26.62
2022-08-03T05:48:41.142Z,26.68
2022-08-03T05:51:11.539Z,26.65
2022-08-03T05:53:40.057Z,26.77
2022-08-03T05:56:13.997Z,26.64
2022-08-03T05:58:47.641Z,26.82
2022-08-03T06:01:16.307Z,26.95
2022-08-03T06:03:43.272Z,27.14
2022-08-03T06:06:10.065Z,27.34
2022-08-03T06:08:37.154Z,27.37
2022-08-03T06:11:05.654Z,27.37
2022-08-03T06:13:32.505Z,27.63
2022-08-03T06:15:59.401Z,27.72
2022-08-03T06:18:26.230Z,27.73
2022-08-03T06:20:53.170Z,27.66
2022-08-03T06:23:20.206Z,27.67
2022-08-03T06:25:47.579Z,27.87
2022-08-03T06:28:35.681Z,27.84
2022-08-03T06:31:01.981Z,28.10
2022-08-03T06:34:30.757Z,27.85
2022-08-03T06:36:15.818Z,27.96
2022-08-03T06:38:42.447Z,28.02
2022-08-03T06:41:09.245Z,28.09
2022-08-03T06:43:38.137Z,28.02
2022-08-03T06:46:24.489Z,28.03
2022-08-03T06:48:51.217Z,28.01
2022-08-03T06:51:18.997Z,27.92
2022-08-03T06:53:45.598Z,28.06
2022-08-03T06:56:12.248Z,28.08
2022-08-03T06:58:38.924Z,28.01
2022-08-03T07:01:05.669Z,28.01
2022-08-03T07:03:32.605Z,28.05
2022-08-03T07:05:59.875Z,28.07
2022-08-03T07:08:33.576Z,28.25
2022-08-03T07:11:00.718Z,28.37
2022-08-03T07:13:27.318Z,28.26
2022-08-03T07:15:56.549Z,28.41
2022-08-03T07:18:24.473Z,28.18
2022-08-03T07:20:58.212Z,28.26
2022-08-03T07:23:25.728Z,28.19
2022-08-03T07:25:52.744Z,28.40
2022-08-03T07:28:20.115Z,28.45
2022-08-03T07:30:47.464Z,28.46
2022-08-03T07:33:15.360Z,28.38
2022-08-03T07:35:42.293Z,28.52
2022-08-03T07:38:08.921Z,28.51
2022-08-03T07:40:35.830Z,28.83
2022-08-03T07:43:03.521Z,28.69
2022-08-03T07:45:31.518Z,28.64
2022-08-03T07:47:58.190Z,28.64
2022-08-03T07:50:25.484Z,28.76
2022-08-03T07:52:53.642Z,28.80
2022-08-03T07:55:22.599Z,28.83
2022-08-03T07:58:06.621Z,29.07
2022-08-03T08:00:34.053Z,29.20
2022-08-03T08:03:00.921Z,29.22
2022-08-03T08:05:28.230Z,29.30
2022-08-03T08:07:55.546Z,29.28
2022-08-03T08:10:22.407Z,29.10
2022-08-03T08:12:49.393Z,29.13
2022-08-03T08:15:16.336Z,28.94
2022-08-03T08:17:50.876Z,28.88
2022-08-03T08:20:22.460Z,28.99
2022-08-03T08:22:57.159Z,29.28
2022-08-03T08:25:25.361Z,29.23
2022-08-03T08:28:31.517Z,29.25
2022-08-03T08:30:38.881Z,29.18
2022-08-03T08:33:05.628Z,29.28
2022-08-03T08:35:32.370Z,29.24
2022-08-03T08:38:05.562Z,29.22
2022-08-03T08:40:32.810Z,29.78
2022-08-03T08:42:59.528Z,29.73
2022-08-03T08:45:26.761Z,29.49
2022-08-03T08:48:00.347Z,29.52
2022-08-03T08:50:28.754Z,29.69
2022-08-03T08:52:59.927Z,29.63
2022-08-03T08:55:26.942Z,29.53
2022-08-03T08:58:01.965Z,29.87
2022-08-03T09:00:30.886Z,29.72
2022-08-03T09:02:57.696Z,29.68
2022-08-03T09:05:36.273Z,29.66
2022-08-03T09:08:11.415Z,29.95
2022-08-03T09:10:38.163Z,29.91
2022-08-03T09:13:04.831Z,29.83
2022-08-03T09:15:33.363Z,30.00
2022-08-03T09:18:02.581Z,29.98
2022-08-03T09:20:34.502Z,30.65
2022-08-03T09:23:19.067Z,30.35
2022-08-03T09:26:00.061Z,30.43
2022-08-03T09:29:00.493Z,30.80
2022-08-03T09:31:32.140Z,30.67
2022-08-03T09:34:02.198Z,30.42
2022-08-03T09:36:40.807Z,30.80
2022-08-03T09:39:40.961Z,30.64
2022-08-03T09:42:23.773Z,30.50
2022-08-03T09:44:52.062Z,30.69
2022-08-03T09:47:29.571Z,30.87
2022-08-03T09:50:04.538Z,30.67
2022-08-03T09:52:39.100Z,30.55
2022-08-03T09:56:30.773Z,30.84
2022-08-03T09:58:06.997Z,30.65
2022-08-03T10:00:54.415Z,30.77
2022-08-03T10:03:21.312Z,30.61
2022-08-03T10:05:48.179Z,30.41
2022-08-03T10:08:16.308Z,30.52
2022-08-03T10:10:44.244Z,30.49
2022-08-03T10:13:16.422Z,30.62
2022-08-03T10:16:23.117Z,30.77
2022-08-03T10:18:29.977Z,31.09
2022-08-03T10:21:05.059Z,31.46
2022-08-03T10:23:35.739Z,31.76
2022-08-03T10:26:05.937Z,31.47
2022-08-03T10:28:44.719Z,31.26
2022-08-03T10:31:13.904Z,31.45
2022-08-03T10:33:50.955Z,31.63
2022-08-03T10:36:23.906Z,32.09
2022-08-03T10:38:55.274Z,32.24
2022-08-03T10:41:26.990Z,32.55
2022-08-03T10:43:58.768Z,32.80
2022-08-03T10:46:27.257Z,32.52
2022-08-03T10:48:56.516Z,32.26
2022-08-03T10:51:24.113Z,32.00
2022-08-03T10:53:54.964Z,32.09
2022-08-03T10:56:54.388Z,33.02
2022-08-03T10:59:46.135Z,33.63
2022-08-03T11:02:16.319Z,33.59
2022-08-03T11:04:45.264Z,33.24
2022-08-03T11:07:23.676Z,33.18
2022-08-03T11:09:55.369Z,33.34
2022-08-03T11:12:21.887Z,33.18
2022-08-03T11:15:21.506Z,34.06
2022-08-03T11:18:11.103Z,33.38
2022-08-03T11:20:52.167Z,33.42
2022-08-03T11:24:04.540Z,33.32
2022-08-03T11:26:33.804Z,33.01
2022-08-03T11:29:31.730Z,32.72
2022-08-03T11:31:58.725Z,32.55
2022-08-03T11:34:26.120Z,33.67
2022-08-03T11:37:28.534Z,33.61
2022-08-03T11:39:58.045Z,33.21
2022-08-03T11:42:24.943Z,32.83
2022-08-03T11:44:56.498Z,32.65
2022-08-03T11:47:26.949Z,32.76
2022-08-03T11:49:59.171Z,32.96
2022-08-03T11:52:28.729Z,32.87
2022-08-03T11:54:57.132Z,33.18
2022-08-03T11:59:01.235Z,34.02
2022-08-03T12:00:23.700Z,33.61
2022-08-03T12:03:10.797Z,32.81
2022-08-03T12:05:51.856Z,33.15
2022-08-03T12:08:27.908Z,33.11
2022-08-03T12:10:57.640Z,32.81
2022-08-03T12:14:44.927Z,32.75
2022-08-03T12:16:24.798Z,32.60
2022-08-03T12:19:06.676Z,33.37
2022-08-03T12:21:33.622Z,34.19
2022-08-03T12:24:05.135Z,34.17
2022-08-03T12:26:58.338Z,33.77
2022-08-03T12:29:25.921Z,33.38
2022-08-03T12:31:53.498Z,33.13
2022-08-03T12:34:20.212Z,33.18
2022-08-03T12:36:54.191Z,33.13
2022-08-03T12:39:24.977Z,33.50
2022-08-03T12:41:55.632Z,33.66
2022-08-03T12:44:33.486Z,34.24
2022-08-03T12:47:01.424Z,33.86
2022-08-03T12:49:30.490Z,33.35
2022-08-03T12:52:04.091Z,33.30
2022-08-03T12:54:35.996Z,34.07
2022-08-03T12:57:08.770Z,34.92
2022-08-03T12:59:49.861Z,35.20
2022-08-03T13:02:25.726Z,34.78
2022-08-03T13:04:54.753Z,35.48
2022-08-03T13:07:22.445Z,35.51
2022-08-03T13:09:50.180Z,34.87
2022-08-03T13:12:22.458Z,34.01
2022-08-03T13:14:57.348Z,33.76
2022-08-03T13:17:24.833Z,34.29
2022-08-03T13:19:52.008Z,35.54
2022-08-03T13:22:21.399Z,35.12
2022-08-03T13:24:51.396Z,34.47
2022-08-03T13:28:01.558Z,34.76
2022-08-03T13:30:06.198Z,35.69
2022-08-03T13:32:33.652Z,36.02
2022-08-03T13:35:00.361Z,35.49
2022-08-03T13:37:27.364Z,34.79
2022-08-03T13:39:58.697Z,34.48
2022-08-03T13:42:30.294Z,34.20
2022-08-03T13:44:57.057Z,34.12
2022-08-03T13:47:23.785Z,34.04
2022-08-03T13:49:59.631Z,33.90
2022-08-03T13:52:32.674Z,34.12
2022-08-03T13:55:00.067Z,35.42
2022-08-03T13:58:04.544Z,35.24
2022-08-03T14:00:28.052Z,34.53
2022-08-03T14:03:05.036Z,34.07
2022-08-03T14:05:32.526Z,33.93
2022-08-03T14:08:04.725Z,34.15
2022-08-03T14:10:39.603Z,34.05
2022-08-03T14:13:07.017Z,33.52
2022-08-03T14:15:38.035Z,32.93
2022-08-03T14:18:06.094Z,32.59
2022-08-03T14:20:38.798Z,32.45
2022-08-03T14:23:16.164Z,32.29
2022-08-03T14:25:50.151Z,32.26
2022-08-03T14:28:18.417Z,31.95
2022-08-03T14:30:45.493Z,31.94
2022-08-03T14:33:12.157Z,32.16
2022-08-03T14:35:38.782Z,32.45
2022-08-03T14:38:05.448Z,32.76
2022-08-03T14:40:32.329Z,33.72
2022-08-03T14:42:59.272Z,34.36
2022-08-03T14:45:26.051Z,34.19
2022-08-03T14:50:34.226Z,33.91
2022-08-03T14:50:45.491Z,33.88
2022-08-03T14:53:17.185Z,33.53
2022-08-03T14:55:49.863Z,33.41
2022-08-03T14:58:19.584Z,32.98
2022-08-03T15:00:48.096Z,32.90
2022-08-03T15:03:16.789Z,33.16
2022-08-03T15:05:43.865Z,33.50
2022-08-03T15:08:10.559Z,33.79
2022-08-03T15:10:44.400Z,33.89
2022-08-03T15:13:15.341Z,33.72
2022-08-03T15:15:42.314Z,33.55
2022-08-03T15:18:09.285Z,34.13
2022-08-03T15:20:44.314Z,35.45
2022-08-03T15:23:11.907Z,36.79
2022-08-03T15:26:28.424Z,36.56
2022-08-03T15:28:25.393Z,35.69
2022-08-03T15:30:53.027Z,35.98
2022-08-03T15:33:20.418Z,35.87
2022-08-03T15:35:47.870Z,35.43
2022-08-03T15:38:15.983Z,36.10
2022-08-03T15:40:42.781Z,35.69
2022-08-03T15:43:09.429Z,35.99
2022-08-03T15:45:36.965Z,35.64
2022-08-03T15:48:05.815Z,35.48
2022-08-03T15:50:32.929Z,36.41
2022-08-03T15:52:59.756Z,36.82
2022-08-03T15:55:26.728Z,37.56
2022-08-03T15:59:09.239Z,36.98
2022-08-03T16:00:41.657Z,35.28
2022-08-03T16:03:08.461Z,34.19
2022-08-03T16:05:36.146Z,33.69
2022-08-03T16:08:05.120Z,33.24
2022-08-03T16:10:33.713Z,32.97
2022-08-03T16:13:00.593Z,32.99
2022-08-03T16:15:27.700Z,33.38
2022-08-03T16:17:54.404Z,33.12
2022-08-03T16:20:30.827Z,32.87
2022-08-03T16:23:10.796Z,32.83
2022-08-03T16:25:42.519Z,32.67
2022-08-03T16:28:14.009Z,32.45
2022-08-03T16:30:42.895Z,32.56
2022-08-03T16:33:10.310Z,32.51
2022-08-03T16:35:37.527Z,32.65
2022-08-03T16:38:09.561Z,32.50
2022-08-03T16:40:36.912Z,32.47
2022-08-03T16:43:18.502Z,32.48
2022-08-03T16:45:47.320Z,32.43
2022-08-03T16:48:18.274Z,32.31
2022-08-03T16:50:45.443Z,32.11
2022-08-03T16:53:16.824Z,31.81
2022-08-03T16:55:52.372Z,31.74
2022-08-03T16:58:41.511Z,31.98
2022-08-03T17:03:42.700Z,31.92
2022-08-03T17:06:33.817Z,31.71
2022-08-03T17:09:01.969Z,31.56
2022-08-03T17:11:32.058Z,31.58
2022-08-03T17:14:00.508Z,31.56
2022-08-03T17:16:28.379Z,31.60
2022-08-03T17:19:03.985Z,31.56
2022-08-03T17:21:33.069Z,31.56
2022-08-03T17:24:19.826Z,31.35
2022-08-03T17:26:50.044Z,31.32
2022-08-03T17:29:22.976Z,31.39
2022-08-03T17:31:54.213Z,31.42
2022-08-03T17:34:26.570Z,31.50
2022-08-03T17:37:26.963Z,31.40
2022-08-03T17:39:59.845Z,31.42
2022-08-03T17:42:38.865Z,31.58
2022-08-03T17:45:07.099Z,31.73
2022-08-03T17:47:42.671Z,31.77
2022-08-03T17:50:25.123Z,31.78
2022-08-03T17:53:07.606Z,31.62
2022-08-03T17:55:57.043Z,31.42
2022-08-03T17:58:55.431Z,31.44
2022-08-03T18:02:16.641Z,31.62
2022-08-03T18:05:00.678Z,31.46
2022-08-03T18:07:40.946Z,31.55
2022-08-03T18:10:11.489Z,31.28
2022-08-03T18:12:59.825Z,31.18
2022-08-03T18:15:37.573Z,31.25
2022-08-03T18:18:11.222Z,31.36
2022-08-03T18:20:41.993Z,31.34
2022-08-03T18:23:11.683Z,31.32
2022-08-03T18:25:57.917Z,31.31
2022-08-03T18:28:27.328Z,31.31
2022-08-03T18:30:56.228Z,31.27
2022-08-03T18:34:16.919Z,31.20
2022-08-03T18:36:17.454Z,31.12
2022-08-03T18:38:49.319Z,31.02
2022-08-03T18:41:21.954Z,30.90
2022-08-03T18:44:08.264Z,30.90
2022-08-03T18:46:41.316Z,30.98
2022-08-03T18:49:15.994Z,30.93
2022-08-03T18:51:47.075Z,30.88
2022-08-03T18:54:45.460Z,30.94
2022-08-03T18:57:07.349Z,31.11
2022-08-03T18:59:46.242Z,30.96
2022-08-03T19:02:40.971Z,31.06
2022-08-03T19:05:19.172Z,31.13
2022-08-03T19:10:57.947Z,30.83
2022-08-03T19:13:38.447Z,30.82
2022-08-03T19:16:13.951Z,30.93
2022-08-03T19:18:50.089Z,30.81
2022-08-03T19:21:16.859Z,30.88
2022-08-03T19:23:47.588Z,30.92
2022-08-03T19:29:06.857Z,30.96
2022-08-03T19:31:59.696Z,31.02
2022-08-03T19:34:29.783Z,31.12
2022-08-03T19:36:59.792Z,31.21
2022-08-03T19:39:27.789Z,31.10
2022-08-03T19:41:58.356Z,31.15
2022-08-03T19:44:37.885Z,31.29
2022-08-03T19:47:10.099Z,31.14
2022-08-03T19:49:57.793Z,31.24
2022-08-03T19:52:31.528Z,31.12
2022-08-03T19:55:02.116Z,31.10
2022-08-03T19:57:32.626Z,31.08
2022-08-03T20:00:03.528Z,31.10
2022-08-03T20:02:32.219Z,31.02
2022-08-03T20:04:59.776Z,31.38
2022-08-03T20:07:28.477Z,31.47
2022-08-03T20:09:56.616Z,31.46
2022-08-03T20:12:29.203Z,31.28
2022-08-03T20:14:57.806Z,31.30
2022-08-03T20:17:54.778Z,31.38
2022-08-03T20:20:12.776Z,31.34
2022-08-03T20:22:45.482Z,31.25
2022-08-03T20:25:16.262Z,31.16
2022-08-03T20:28:05.823Z,31.25
2022-08-03T20:30:35.609Z,31.17
2022-08-03T20:33:02.425Z,30.92
2022-08-03T20:35:30.340Z,30.94
2022-08-03T20:37:57.967Z,30.75
2022-08-03T20:40:27.479Z,30.81
2022-08-03T20:42:55.505Z,30.83
2022-08-03T20:46:01.103Z,30.86
2022-08-03T20:48:10.057Z,30.98
2022-08-03T20:50:38.515Z,30.77
2022-08-03T20:53:06.760Z,30.71
2022-08-03T20:55:47.584Z,30.73
2022-08-03T20:58:20.768Z,30.71
2022-08-03T21:00:51.478Z,30.78
2022-08-03T21:03:19.036Z,30.85
2022-08-03T21:05:51.807Z,30.94
2022-08-03T21:08:25.972Z,30.85
2022-08-03T21:10:53.736Z,30.81
2022-08-03T21:13:01.365Z,30.91
2022-08-03T21:13:02.203Z,30.92
2022-08-03T21:13:37.724Z,30.83
2022-08-03T21:16:14.250Z,30.82
2022-08-03T21:18:47.545Z,30.95
2022-08-03T21:21:16.429Z,30.97
2022-08-03T21:23:49.099Z,30.66
2022-08-03T21:26:18.248Z,30.61
2022-08-03T21:28:46.952Z,30.57
2022-08-03T21:31:19.777Z,30.69
2022-08-03T21:34:11.760Z,30.70
2022-08-03T21:36:38.731Z,30.54
2022-08-03T21:39:08.336Z,30.51
2022-08-03T21:41:36.460Z,30.55
2022-08-03T21:44:04.849Z,30.76
2022-08-03T21:46:41.048Z,30.89
2022-08-03T21:50:04.617Z,30.72
2022-08-03T21:51:59.604Z,30.57
2022-08-03T21:54:35.098Z,30.50
2022-08-03T21:57:05.914Z,30.34
2022-08-03T21:59:37.373Z,30.30
2022-08-03T22:02:04.624Z,30.31
2022-08-03T22:04:50.922Z,30.40
2022-08-03T22:07:23.048Z,30.31
2022-08-03T22:09:52.050Z,30.42
2022-08-03T22:12:23.912Z,30.33
2022-08-03T22:15:00.507Z,30.31
2022-08-03T22:17:54.573Z,30.07
2022-08-03T22:20:15.946Z,29.92
2022-08-03T22:22:53.540Z,30.02
2022-08-03T22:25:28.898Z,29.81
2022-08-03T22:27:56.597Z,29.79
2022-08-03T22:30:23.486Z,29.80
2022-08-03T22:32:53.411Z,29.61
2022-08-03T22:35:21.500Z,29.58
2022-08-03T22:37:53.975Z,29.64
2022-08-03T22:40:21.014Z,29.54
2022-08-03T22:42:50.507Z,29.38
2022-08-03T22:46:10.477Z,29.89
2022-08-03T22:48:08.271Z,30.04
2022-08-03T22:50:35.699Z,29.62
2022-08-03T22:53:02.834Z,29.41
2022-08-03T22:55:29.914Z,29.26
2022-08-03T22:57:56.675Z,29.30
2022-08-03T23:00:23.938Z,29.28
2022-08-03T23:02:52.029Z,29.34
2022-08-03T23:06:01.087Z,29.39
2022-08-03T23:08:15.250Z,29.71
2022-08-03T23:10:47.021Z,29.86
2022-08-03T23:13:16.607Z,29.92
2022-08-03T23:15:52.566Z,29.80
2022-08-03T23:18:21.545Z,29.75
2022-08-03T23:20:58.141Z,29.54
2022-08-03T23:23:24.885Z,29.48
2022-08-03T23:25:51.918Z,29.40
2022-08-03T23:28:18.956Z,29.30
2022-08-03T23:30:45.859Z,29.32
2022-08-03T23:33:15.253Z,29.33
2022-08-03T23:36:22.648Z,29.14
2022-08-03T23:38:45.013Z,28.94
2022-08-03T23:41:12.825Z,28.90
2022-08-03T23:43:44.952Z,28.72
2022-08-03T23:46:21.488Z,28.59
2022-08-03T23:48:48.205Z,28.54
2022-08-03T23:51:42.209Z,28.58
2022-08-03T23:54:30.235Z,28.58
2022-08-03T23:57:15.578Z,28.46
